Latest Weather Observations for Wudinna Airport

IDS60801

Issued at 1:02 pm CDT Friday 6 March 2015 (issued every 30 minutes, with the page automatically refreshed every 10 minutes)

About weather observations | Map of weather stations | Latest weather observations for SA | Other Formats
Station Details ID: 018083 Name: WUDINNA AERO Lat: -33.04 Lon: 135.45 Height: 86.4 m
Data from the previous 72 hours. | See also: Recent months at Wudinna Airport
Date/Time
CDT
Temp
°C
App
Temp
°C
Dew
Point
Rel
Hum
%
Delta-T
°C
Wind Press
QNH
hPa
Press
MSL
hPa
Rain
since 9 am
mm
Dir
 
Spd
km/h
Gust
km/h
Spd
kts
Gust
kts
06/01:00pm 21.8 18.6 6.9 38 7.6 S 13 24 7 13 1020.0 - 0.0
06/12:30pm 21.0 16.8 5.8 37 7.6 S 17 24 9 13 1020.7 - 0.0
06/12:00pm 20.3 16.2 8.0 45 6.4 SE 19 24 10 13 1021.3 1021.0 0.0
06/11:30am 19.1 15.2 8.7 51 5.4 S 19 26 10 14 1021.6 - 0.0
06/11:00am 17.7 14.9 8.6 55 4.7 SSE 13 20 7 11 1021.8 - 0.0
06/10:30am 16.7 14.0 8.9 60 4.0 SSE 13 20 7 11 1021.8 - 0.0
06/10:00am 16.0 13.8 9.2 64 3.5 SSE 11 17 6 9 1021.9 - 0.0
06/09:30am 14.0 11.9 8.4 69 2.8 S 9 13 5 7 1022.2 - 0.0
06/09:00am 13.2 11.5 8.5 73 2.3 S 7 9 4 5 1022.1 1021.8 0.0
06/08:30am 11.0 10.4 7.5 79 1.7 CALM 0 0 0 0 1021.9 - 0.0
06/08:00am 8.0 6.3 5.8 86 1.0 NNW 4 7 2 4 1021.5 - 0.0
06/07:30am 5.3 2.7 3.0 85 1.0 N 6 7 3 4 1021.3 - 0.0
06/07:00am 5.2 1.9 2.7 84 1.0 NW 9 9 5 5 1021.4 - 0.0
06/06:30am 5.9 4.5 3.6 85 1.0 CALM 0 0 0 0 1021.4 - 0.0
06/06:00am 6.0 4.6 3.5 84 1.0 CALM 0 0 0 0 1021.3 1021.0 0.0
06/05:30am 8.0 6.6 5.6 85 1.1 ENE 2 7 1 4 1021.3 - 0.0
06/05:00am 10.1 7.7 6.8 80 1.6 SE 9 13 5 7 1021.3 - 0.0
06/04:30am 8.4 6.1 5.7 83 1.2 SE 7 11 4 6 1021.5 - 0.0
06/04:00am 7.8 6.6 4.7 81 1.4 CALM 0 0 0 0 1021.9 - 0.0
06/03:30am 8.2 7.0 4.6 78 1.6 CALM 0 0 0 0 1022.3 - 0.0
06/03:00am 8.6 7.1 5.0 78 1.6 SSW 2 7 1 4 1022.6 1022.3 0.0
06/02:30am 10.9 8.9 6.3 73 2.2 S 6 9 3 5 1022.6 - 0.0
06/02:00am 11.5 9.4 6.6 72 2.3 SSE 7 9 4 5 1022.9 - 0.0
06/01:30am 11.9 9.1 7.0 72 2.4 S 11 13 6 7 1023.5 - 0.0
06/01:00am 12.8 10.0 6.8 67 2.9 SSE 11 13 6 7 1023.5 - 0.0
06/12:30am 13.4 10.5 6.7 64 3.2 SSE 11 15 6 8 1024.0 - 0.0
06/12:00am 14.1 11.2 6.7 61 3.6 SE 11 15 6 8 1023.8 1023.5 0.0
 
Date/Time
CDT
Temp
°C
App
Temp
°C
Dew
Point
Rel
Hum
%
Delta-T
°C
Wind Press
QNH
hPa
Press
MSL
hPa
Rain
since 9 am
mm
Dir
 
Spd
km/h
Gust
km/h
Spd
kts
Gust
kts
05/11:30pm 13.7 11.7 7.0 64 3.3 SSE 7 11 4 6 1023.7 - 0.0
05/11:00pm 14.8 12.1 7.4 61 3.7 SSE 11 13 6 7 1023.7 - 0.0
05/10:30pm 15.7 12.7 7.7 59 4.0 SSE 13 17 7 9 1023.6 - 0.0
05/10:00pm 16.3 13.7 7.8 57 4.3 SSE 11 15 6 8 1023.6 - 0.0
05/09:30pm 16.8 13.4 7.7 55 4.6 SSE 15 22 8 12 1023.1 - 0.0
05/09:00pm 17.6 13.6 8.2 54 4.8 S 19 28 10 15 1022.6 1022.3 0.0
05/08:30pm 18.8 13.5 8.5 51 5.3 S 26 35 14 19 1022.0 - 0.0
05/08:00pm 20.5 14.7 7.8 44 6.6 S 28 37 15 20 1021.6 - 0.0
05/07:30pm 22.3 16.0 7.3 38 7.8 S 30 35 16 19 1021.2 - 0.0
05/07:00pm 24.3 19.5 5.6 30 9.5 S 20 33 11 18 1020.8 - 0.0
05/06:30pm 25.6 20.3 2.9 23 11.1 SE 20 33 11 18 1020.4 - 0.0
05/06:00pm 25.7 20.4 3.0 23 11.1 SSE 20 30 11 16 1020.2 1019.9 0.0
05/05:30pm 26.1 20.4 2.7 22 11.4 S 22 33 12 18 1020.4 - 0.0
05/05:00pm 25.9 21.1 4.4 25 10.8 SSE 19 30 10 16 1020.6 - 0.0
05/04:30pm 25.3 20.4 5.0 27 10.3 SSE 20 32 11 17 1020.5 - 0.0
05/04:00pm 25.7 21.0 5.3 27 10.4 SSE 19 33 10 18 1021.1 - 0.0
05/03:30pm 26.0 21.4 6.6 29 10.2 SSE 20 30 11 16 1021.4 - 0.0
05/03:00pm 25.3 21.1 5.5 28 10.1 SSE 17 33 9 18 1021.9 1021.6 0.0
05/02:30pm 24.0 18.7 4.9 29 9.6 SE 22 41 12 22 1022.4 - 0.0
05/02:00pm 22.8 18.7 6.1 34 8.5 SE 17 26 9 14 1022.8 - 0.0
05/01:30pm 21.3 16.3 6.4 38 7.6 SE 22 33 12 18 1023.2 - 0.0
05/01:00pm 20.9 16.1 7.2 41 7.0 SSE 22 33 12 18 1023.6 - 0.0
05/12:30pm 20.1 15.5 6.4 41 6.9 SSE 20 28 11 15 1023.8 - 0.0
05/12:00pm 20.6 16.0 8.3 45 6.4 SSE 22 32 12 17 1023.8 1023.5 0.0
05/11:30am 19.3 14.4 8.3 49 5.7 SE 24 35 13 19 1024.0 - 0.0
05/11:00am 19.7 14.6 9.3 51 5.5 SSE 26 35 14 19 1024.0 - 0.0
05/10:30am 18.7 13.9 8.9 53 5.1 SSE 24 35 13 19 1024.0 - 0.0
05/10:00am 18.4 13.5 10.0 58 4.5 SSE 26 35 14 19 1023.9 - 0.0
05/09:30am 17.7 13.6 10.1 61 4.0 SSE 22 33 12 18 1023.8 - 0.0
05/09:00am 16.7 12.7 10.3 66 3.4 SSE 22 32 12 17 1023.6 1023.3 0.0
05/08:30am 16.5 13.0 10.8 69 3.1 S 20 28 11 15 1023.5 - 0.0
05/08:00am 15.6 13.6 11.4 76 2.3 S 13 19 7 10 1023.1 - 0.0
05/07:30am 15.6 13.4 12.0 79 2.0 S 15 19 8 10 1022.7 - 0.0
05/07:00am 15.8 14.4 12.2 79 2.0 S 11 17 6 9 1022.6 - 0.0
05/06:30am 16.0 13.8 12.2 78 2.1 S 15 20 8 11 1022.2 - 0.0
05/06:00am 16.7 14.2 12.3 75 2.4 S 17 20 9 11 1022.3 1022.0 0.0
05/05:30am 17.0 13.5 12.3 74 2.6 S 22 28 12 15 1022.1 - 0.0
05/05:00am 17.2 13.7 12.1 72 2.8 S 22 35 12 19 1021.7 - 0.0
05/04:30am 17.4 13.6 12.5 73 2.7 S 24 33 13 18 1021.5 - 0.0
05/04:00am 16.9 14.2 13.0 78 2.2 SSW 19 22 10 12 1021.6 - 0.0
05/03:30am 17.6 15.3 13.1 75 2.5 SW 17 20 9 11 1022.1 - 0.0
05/03:00am 17.7 15.5 13.2 75 2.5 SSW 17 19 9 10 1021.8 1021.5 0.0
05/02:30am 17.3 14.9 12.8 75 2.5 S 17 22 9 12 1021.9 - 0.0
05/02:00am 17.0 15.2 12.1 73 2.7 WSW 13 15 7 8 1022.2 - 0.0
05/01:30am 17.2 15.8 12.1 72 2.8 WSW 11 15 6 8 1022.4 - 0.0
05/01:00am 17.1 15.3 12.0 72 2.8 WSW 13 17 7 9 1022.5 - 0.0
05/12:30am 16.5 15.2 11.4 72 2.8 WSW 9 13 5 7 1022.3 - 0.0
05/12:00am 16.0 14.2 10.7 71 2.8 WSW 11 13 6 7 1022.3 1022.0 0.0
 
Date/Time
CDT
Temp
°C
App
Temp
°C
Dew
Point
Rel
Hum
%
Delta-T
°C
Wind Press
QNH
hPa
Press
MSL
hPa
Rain
since 9 am
mm
Dir
 
Spd
km/h
Gust
km/h
Spd
kts
Gust
kts
04/11:30pm 16.3 14.0 10.4 68 3.1 SW 13 15 7 8 1022.3 - 0.0
04/11:00pm 17.6 14.6 10.7 64 3.7 SW 17 20 9 11 1022.2 - 0.0
04/10:30pm 17.4 15.1 10.5 64 3.7 SW 13 17 7 9 1022.3 - 0.0
04/10:00pm 16.9 14.5 10.1 64 3.6 SSW 13 17 7 9 1022.4 - 0.0
04/09:30pm 17.5 13.9 9.9 61 4.0 SSW 19 22 10 12 1021.8 - 0.0
04/09:00pm 18.0 13.8 9.6 58 4.4 SSW 22 32 12 17 1021.4 1021.1 0.0
04/08:30pm 18.3 14.1 9.6 57 4.6 SW 22 33 12 18 1021.2 - 0.0
04/08:00pm 19.1 13.7 9.6 54 5.1 SW 28 35 15 19 1020.8 - 0.0
04/07:30pm 20.2 14.7 9.2 49 5.8 SSW 28 35 15 19 1020.3 - 0.0
04/07:00pm 21.6 15.9 8.5 43 6.9 SW 28 35 15 19 1019.5 - 0.0
04/06:30pm 22.5 17.0 7.5 38 7.8 SSW 26 39 14 21 1019.3 - 0.0
04/06:00pm 23.5 18.1 8.0 37 8.2 SSW 26 37 14 20 1019.1 1018.9 0.0
04/05:30pm 24.0 17.7 7.6 35 8.7 SW 30 41 16 22 1019.0 - 0.0
04/05:21pm 24.2 18.4 7.8 35 8.7 SSW 28 46 15 25 1018.9 - 0.0
04/05:00pm 24.8 17.7 6.5 31 9.5 SW 33 46 18 25 1018.7 - 0.0
04/04:30pm 25.8 19.3 6.4 29 10.1 SW 30 37 16 20 1018.6 - 0.0
04/04:00pm 25.8 19.3 6.4 29 10.1 SSW 30 39 16 21 1018.5 - 0.0
04/03:30pm 26.9 21.0 5.8 26 11.0 SW 26 37 14 20 1018.8 - 0.0
04/03:00pm 27.1 22.6 7.0 28 10.7 SSW 20 35 11 19 1018.9 1018.7 0.0
04/02:30pm 25.6 21.0 6.7 30 9.9 S 20 30 11 16 1019.2 - 0.0
04/02:00pm 26.3 22.5 7.4 30 10.1 S 17 24 9 13 1019.2 - 0.0
04/01:30pm 24.5 20.7 7.6 34 8.9 SSW 17 35 9 19 1019.5 - 0.0
04/01:00pm 23.0 19.6 7.5 37 8.1 SSW 15 19 8 10 1020.1 - 0.0
04/12:30pm 22.5 20.2 9.0 42 7.2 SSE 11 24 6 13 1020.4 - 0.0
04/12:00pm 21.3 18.7 9.5 47 6.3 SSE 13 22 7 12 1020.8 1020.5 0.0
04/11:30am 20.6 17.4 9.8 50 5.8 S 17 28 9 15 1021.1 - 0.0
04/11:00am 19.8 16.4 10.5 55 5.1 S 19 28 10 15 1021.2 - 0.0
04/10:30am 19.5 16.4 11.5 60 4.4 S 19 28 10 15 1020.9 - 0.0
04/10:00am 18.1 14.6 11.0 63 3.9 SSE 20 26 11 14 1021.1 - 0.0
04/09:30am 18.1 15.3 11.4 65 3.7 S 17 22 9 12 1020.8 - 0.0
04/09:00am 16.9 13.7 11.2 69 3.1 S 19 24 10 13 1020.6 1020.3 0.0
04/08:30am 15.8 13.8 11.4 75 2.4 S 13 19 7 10 1020.4 - 0.0
04/08:00am 14.4 12.6 11.0 80 1.8 S 11 13 6 7 1020.1 - 0.0
04/07:30am 14.6 12.9 11.2 80 1.8 S 11 13 6 7 1019.9 - 0.0
04/07:00am 14.9 13.6 11.3 79 1.9 S 9 11 5 6 1019.6 - 0.0
04/06:30am 15.3 13.7 11.5 78 2.1 S 11 15 6 8 1019.2 - 0.0
04/06:00am 15.5 13.5 11.5 77 2.2 S 13 19 7 10 1018.9 1018.7 0.0
04/05:30am 15.8 14.2 11.4 75 2.4 S 11 13 6 7 1018.9 - 0.0
04/05:00am 15.4 14.0 11.0 75 2.4 S 9 11 5 6 1019.0 - 0.0
04/04:30am 15.7 14.0 11.1 74 2.5 S 11 17 6 9 1019.3 - 0.0
04/04:00am 16.3 14.2 11.0 71 2.8 SSE 13 20 7 11 1019.0 - 0.0
04/03:30am 16.5 13.5 10.8 69 3.1 SSE 17 24 9 13 1018.7 - 0.0
04/03:00am 16.7 14.2 11.0 69 3.1 SSE 15 20 8 11 1019.1 1018.9 0.0
04/02:30am 16.9 14.2 10.3 65 3.5 SSE 15 22 8 12 1019.6 - 0.0
04/02:00am 17.7 14.0 9.3 58 4.4 SSE 19 24 10 13 1019.9 - 0.0
04/01:30am 18.1 14.6 10.2 60 4.2 SSE 19 22 10 12 1020.1 - 0.0
04/01:00am 18.4 15.4 10.5 60 4.3 SE 17 22 9 12 1019.5 - 0.0
04/12:30am 18.6 14.9 10.2 58 4.5 SE 20 30 11 16 1019.4 - 0.0
04/12:00am 18.9 15.9 10.5 58 4.5 SE 17 24 9 13 1020.0 1019.7 0.0
 
Date/Time
CDT
Temp
°C
App
Temp
°C
Dew
Point
Rel
Hum
%
Delta-T
°C
Wind Press
QNH
hPa
Press
MSL
hPa
Rain
since 9 am
mm
Dir
 
Spd
km/h
Gust
km/h
Spd
kts
Gust
kts
03/11:30pm 19.4 16.2 9.9 54 5.1 SSE 17 26 9 14 1020.4 - 0.0
03/11:00pm 20.0 16.6 9.3 50 5.7 SE 17 24 9 13 1020.0 - 0.0
03/10:30pm 20.5 17.3 8.5 46 6.3 SE 15 20 8 11 1019.9 - 0.0
03/10:00pm 21.0 17.0 8.3 44 6.7 SE 19 28 10 15 1019.2 - 0.0
03/09:30pm 21.4 17.3 8.7 44 6.7 SE 20 28 11 15 1018.7 - 0.0
03/09:00pm 22.1 18.1 8.9 43 7.0 SE 20 28 11 15 1018.2 1018.0 0.0
03/08:30pm 22.6 19.3 9.7 44 7.0 SE 17 26 9 14 1018.0 - 0.0
03/08:00pm 23.1 19.9 9.8 43 7.3 SE 17 22 9 12 1017.9 - 0.0
03/07:30pm 23.9 19.8 10.2 42 7.6 SSE 22 32 12 17 1017.2 - 0.0
03/07:00pm 24.5 19.4 9.3 38 8.3 S 26 35 14 19 1016.5 - 0.0
03/06:30pm 24.6 18.8 9.3 38 8.3 S 30 35 16 19 1016.2 - 0.0
03/06:00pm 25.3 19.4 9.2 36 8.8 S 30 39 16 21 1016.0 1015.8 0.0
03/05:30pm 27.4 24.3 8.8 31 10.2 SSE 15 26 8 14 1015.8 - 0.0
03/05:00pm 27.4 25.2 9.3 32 10.0 SSE 11 15 6 8 1015.9 - 0.0
03/04:30pm 27.0 23.7 9.4 33 9.7 SSW 17 26 9 14 1015.9 - 0.0
03/04:00pm 27.9 23.6 9.2 31 10.4 S 22 28 12 15 1016.2 - 0.0
03/03:30pm 27.6 24.2 9.0 31 10.3 S 17 28 9 15 1016.6 - 0.0
03/03:00pm 26.1 23.3 8.6 33 9.5 SE 13 24 7 13 1016.8 1016.6 0.0
03/02:30pm 25.9 22.9 9.3 35 9.1 SSE 15 20 8 11 1017.0 - 0.0
03/02:00pm 25.5 22.3 10.1 38 8.6 SE 17 24 9 13 1017.3 - 0.0
03/01:30pm 24.9 20.7 9.6 38 8.4 SSE 22 30 12 16 1017.5 - 0.0

Other Formats:

Comma delimited format used in spreadsheet applications
http://www.bom.gov.au/fwo/IDS60801/IDS60801.95654.axf

JavaScript Object Notation format (JSON) in row-major order
http://www.bom.gov.au/fwo/IDS60801/IDS60801.95654.json